sensor_id;sensor_type;location;lat;lon;timestamp;P1;durP1;ratioP1;P2;durP2;ratioP2
54917;SDS011;40818;50.562;7.454;2023-07-08T00:01:40;5.63;;;1.70;;
54917;SDS011;40818;50.562;7.454;2023-07-08T00:11:46;8.63;;;1.63;;
54917;SDS011;40818;50.562;7.454;2023-07-08T00:21:50;4.80;;;1.50;;
54917;SDS011;40818;50.562;7.454;2023-07-08T00:31:57;3.33;;;1.33;;
54917;SDS011;40818;50.562;7.454;2023-07-08T00:42:00;5.60;;;1.73;;
54917;SDS011;40818;50.562;7.454;2023-07-08T00:52:20;4.32;;;1.10;;
54917;SDS011;40818;50.562;7.454;2023-07-08T01:02:27;6.60;;;1.40;;
54917;SDS011;40818;50.562;7.454;2023-07-08T01:12:34;4.10;;;1.10;;
54917;SDS011;40818;50.562;7.454;2023-07-08T01:22:43;4.05;;;1.38;;
54917;SDS011;40818;50.562;7.454;2023-07-08T01:32:48;4.80;;;1.20;;
54917;SDS011;40818;50.562;7.454;2023-07-08T01:42:57;3.50;;;1.10;;
54917;SDS011;40818;50.562;7.454;2023-07-08T01:53:02;3.80;;;1.10;;
54917;SDS011;40818;50.562;7.454;2023-07-08T02:03:14;3.65;;;1.00;;
54917;SDS011;40818;50.562;7.454;2023-07-08T02:13:17;3.28;;;1.02;;
54917;SDS011;40818;50.562;7.454;2023-07-08T02:23:24;4.30;;;0.90;;
54917;SDS011;40818;50.562;7.454;2023-07-08T02:33:33;4.03;;;1.00;;
54917;SDS011;40818;50.562;7.454;2023-07-08T02:43:39;7.28;;;1.00;;
54917;SDS011;40818;50.562;7.454;2023-07-08T02:53:42;4.68;;;1.00;;
54917;SDS011;40818;50.562;7.454;2023-07-08T03:03:48;3.28;;;0.90;;
54917;SDS011;40818;50.562;7.454;2023-07-08T03:13:54;2.97;;;0.88;;
54917;SDS011;40818;50.562;7.454;2023-07-08T03:24:00;2.85;;;0.90;;
54917;SDS011;40818;50.562;7.454;2023-07-08T03:34:03;5.93;;;0.90;;
54917;SDS011;40818;50.562;7.454;2023-07-08T03:44:09;4.30;;;0.90;;
54917;SDS011;40818;50.562;7.454;2023-07-08T03:54:13;3.13;;;0.82;;
54917;SDS011;40818;50.562;7.454;2023-07-08T04:04:20;3.58;;;0.90;;
54917;SDS011;40818;50.562;7.454;2023-07-08T04:14:24;8.35;;;1.23;;
54917;SDS011;40818;50.562;7.454;2023-07-08T04:24:30;3.88;;;1.00;;
54917;SDS011;40818;50.562;7.454;2023-07-08T04:34:33;2.65;;;0.90;;
54917;SDS011;40818;50.562;7.454;2023-07-08T04:44:39;3.30;;;0.98;;
54917;SDS011;40818;50.562;7.454;2023-07-08T04:54:43;5.93;;;1.08;;
54917;SDS011;40818;50.562;7.454;2023-07-08T05:04:49;3.13;;;0.90;;
54917;SDS011;40818;50.562;7.454;2023-07-08T05:14:52;3.00;;;1.00;;
54917;SDS011;40818;50.562;7.454;2023-07-08T05:24:58;5.38;;;0.90;;
54917;SDS011;40818;50.562;7.454;2023-07-08T05:35:02;3.97;;;1.00;;
54917;SDS011;40818;50.562;7.454;2023-07-08T05:45:09;3.65;;;0.90;;
54917;SDS011;40818;50.562;7.454;2023-07-08T05:55:13;3.17;;;1.00;;
54917;SDS011;40818;50.562;7.454;2023-07-08T06:05:20;2.65;;;0.80;;
54917;SDS011;40818;50.562;7.454;2023-07-08T06:15:24;2.40;;;0.80;;
54917;SDS011;40818;50.562;7.454;2023-07-08T06:25:30;2.67;;;0.85;;
54917;SDS011;40818;50.562;7.454;2023-07-08T06:35:34;4.32;;;0.90;;
54917;SDS011;40818;50.562;7.454;2023-07-08T06:45:40;4.85;;;1.02;;
54917;SDS011;40818;50.562;7.454;2023-07-08T06:55:45;3.75;;;1.10;;
54917;SDS011;40818;50.562;7.454;2023-07-08T07:05:52;3.40;;;1.00;;
54917;SDS011;40818;50.562;7.454;2023-07-08T07:15:55;5.07;;;0.80;;
54917;SDS011;40818;50.562;7.454;2023-07-08T07:26:01;5.70;;;0.93;;
54917;SDS011;40818;50.562;7.454;2023-07-08T07:36:06;2.50;;;0.90;;
54917;SDS011;40818;50.562;7.454;2023-07-08T07:46:12;2.83;;;0.90;;
54917;SDS011;40818;50.562;7.454;2023-07-08T07:56:15;4.30;;;0.80;;
54917;SDS011;40818;50.562;7.454;2023-07-08T08:06:21;2.67;;;0.77;;
54917;SDS011;40818;50.562;7.454;2023-07-08T08:16:25;3.28;;;0.77;;
54917;SDS011;40818;50.562;7.454;2023-07-08T08:26:31;2.33;;;0.80;;
54917;SDS011;40818;50.562;7.454;2023-07-08T08:36:34;4.70;;;0.80;;
54917;SDS011;40818;50.562;7.454;2023-07-08T08:46:41;2.90;;;0.70;;
54917;SDS011;40818;50.562;7.454;2023-07-08T08:56:54;1.73;;;0.60;;
54917;SDS011;40818;50.562;7.454;2023-07-08T09:07:16;2.67;;;0.68;;
54917;SDS011;40818;50.562;7.454;2023-07-08T09:17:27;4.67;;;0.70;;
54917;SDS011;40818;50.562;7.454;2023-07-08T09:27:37;3.17;;;0.80;;
54917;SDS011;40818;50.562;7.454;2023-07-08T09:37:40;3.13;;;0.70;;
54917;SDS011;40818;50.562;7.454;2023-07-08T09:47:54;6.65;;;0.80;;
54917;SDS011;40818;50.562;7.454;2023-07-08T09:58:00;4.57;;;0.80;;
54917;SDS011;40818;50.562;7.454;2023-07-08T10:08:12;4.63;;;0.80;;
54917;SDS011;40818;50.562;7.454;2023-07-08T10:18:26;3.22;;;0.90;;
54917;SDS011;40818;50.562;7.454;2023-07-08T10:28:37;3.40;;;0.82;;
54917;SDS011;40818;50.562;7.454;2023-07-08T10:38:48;5.03;;;0.60;;
54917;SDS011;40818;50.562;7.454;2023-07-08T10:49:08;5.38;;;0.80;;
54917;SDS011;40818;50.562;7.454;2023-07-08T11:09:56;5.63;;;0.70;;
54917;SDS011;40818;50.562;7.454;2023-07-08T11:20:07;2.60;;;0.75;;
54917;SDS011;40818;50.562;7.454;2023-07-08T11:30:22;2.97;;;0.50;;
54917;SDS011;40818;50.562;7.454;2023-07-08T11:40:29;2.50;;;0.50;;
54917;SDS011;40818;50.562;7.454;2023-07-08T11:50:39;2.15;;;0.57;;
54917;SDS011;40818;50.562;7.454;2023-07-08T12:00:50;2.42;;;0.60;;
54917;SDS011;40818;50.562;7.454;2023-07-08T12:11:00;1.90;;;0.40;;
54917;SDS011;40818;50.562;7.454;2023-07-08T12:21:04;2.22;;;0.50;;
54917;SDS011;40818;50.562;7.454;2023-07-08T12:31:13;5.00;;;0.70;;
54917;SDS011;40818;50.562;7.454;2023-07-08T12:41:20;7.15;;;0.90;;
54917;SDS011;40818;50.562;7.454;2023-07-08T12:51:27;4.65;;;0.90;;
54917;SDS011;40818;50.562;7.454;2023-07-08T13:01:31;4.53;;;0.95;;
54917;SDS011;40818;50.562;7.454;2023-07-08T13:11:40;4.43;;;0.98;;
54917;SDS011;40818;50.562;7.454;2023-07-08T13:21:44;4.78;;;1.00;;
54917;SDS011;40818;50.562;7.454;2023-07-08T13:31:52;4.43;;;1.27;;
54917;SDS011;40818;50.562;7.454;2023-07-08T13:41:59;6.22;;;1.10;;
54917;SDS011;40818;50.562;7.454;2023-07-08T13:52:14;7.70;;;1.08;;
54917;SDS011;40818;50.562;7.454;2023-07-08T14:02:22;4.78;;;1.05;;
54917;SDS011;40818;50.562;7.454;2023-07-08T14:12:30;5.40;;;1.10;;
54917;SDS011;40818;50.562;7.454;2023-07-08T14:22:33;3.65;;;1.00;;
54917;SDS011;40818;50.562;7.454;2023-07-08T14:32:40;5.05;;;1.00;;
54917;SDS011;40818;50.562;7.454;2023-07-08T14:42:43;3.25;;;0.90;;
54917;SDS011;40818;50.562;7.454;2023-07-08T14:52:49;6.63;;;1.00;;
54917;SDS011;40818;50.562;7.454;2023-07-08T15:02:53;4.32;;;1.05;;
54917;SDS011;40818;50.562;7.454;2023-07-08T15:12:59;6.57;;;1.02;;
54917;SDS011;40818;50.562;7.454;2023-07-08T15:23:06;4.65;;;0.90;;
54917;SDS011;40818;50.562;7.454;2023-07-08T15:33:12;3.28;;;0.80;;
54917;SDS011;40818;50.562;7.454;2023-07-08T15:43:17;4.50;;;0.70;;
54917;SDS011;40818;50.562;7.454;2023-07-08T15:53:23;5.10;;;0.80;;
54917;SDS011;40818;50.562;7.454;2023-07-08T16:03:27;7.25;;;1.00;;
54917;SDS011;40818;50.562;7.454;2023-07-08T16:13:35;4.05;;;1.10;;
54917;SDS011;40818;50.562;7.454;2023-07-08T16:23:40;4.85;;;1.10;;
54917;SDS011;40818;50.562;7.454;2023-07-08T16:33:46;9.00;;;1.00;;
54917;SDS011;40818;50.562;7.454;2023-07-08T16:43:51;4.32;;;1.10;;
54917;SDS011;40818;50.562;7.454;2023-07-08T16:54:00;6.90;;;1.30;;
54917;SDS011;40818;50.562;7.454;2023-07-08T17:04:12;6.15;;;1.70;;
54917;SDS011;40818;50.562;7.454;2023-07-08T17:14:18;5.63;;;1.20;;
54917;SDS011;40818;50.562;7.454;2023-07-08T17:24:22;10.35;;;1.70;;
54917;SDS011;40818;50.562;7.454;2023-07-08T17:34:28;3.20;;;1.20;;
54917;SDS011;40818;50.562;7.454;2023-07-08T17:44:33;5.85;;;1.20;;
54917;SDS011;40818;50.562;7.454;2023-07-08T17:54:39;9.90;;;1.45;;
54917;SDS011;40818;50.562;7.454;2023-07-08T18:04:42;6.63;;;1.60;;
54917;SDS011;40818;50.562;7.454;2023-07-08T18:14:48;8.00;;;1.50;;
54917;SDS011;40818;50.562;7.454;2023-07-08T18:24:52;8.05;;;1.30;;
54917;SDS011;40818;50.562;7.454;2023-07-08T18:34:58;6.47;;;1.33;;
54917;SDS011;40818;50.562;7.454;2023-07-08T18:45:01;5.32;;;1.25;;
54917;SDS011;40818;50.562;7.454;2023-07-08T18:55:10;4.57;;;1.70;;
54917;SDS011;40818;50.562;7.454;2023-07-08T19:05:15;5.90;;;1.10;;
54917;SDS011;40818;50.562;7.454;2023-07-08T19:15:24;7.30;;;1.17;;
54917;SDS011;40818;50.562;7.454;2023-07-08T19:25:30;3.70;;;0.90;;
54917;SDS011;40818;50.562;7.454;2023-07-08T19:35:39;2.50;;;0.90;;
54917;SDS011;40818;50.562;7.454;2023-07-08T19:45:43;3.50;;;0.90;;
54917;SDS011;40818;50.562;7.454;2023-07-08T19:55:49;7.40;;;1.10;;
54917;SDS011;40818;50.562;7.454;2023-07-08T20:05:52;3.47;;;1.00;;
54917;SDS011;40818;50.562;7.454;2023-07-08T20:16:01;5.43;;;0.90;;
54917;SDS011;40818;50.562;7.454;2023-07-08T20:26:18;4.47;;;1.00;;
54917;SDS011;40818;50.562;7.454;2023-07-08T20:36:30;3.88;;;0.98;;
54917;SDS011;40818;50.562;7.454;2023-07-08T20:46:34;6.70;;;1.00;;
54917;SDS011;40818;50.562;7.454;2023-07-08T20:56:40;4.88;;;0.90;;
54917;SDS011;40818;50.562;7.454;2023-07-08T21:06:44;6.18;;;1.00;;
54917;SDS011;40818;50.562;7.454;2023-07-08T21:16:51;5.97;;;1.00;;
54917;SDS011;40818;50.562;7.454;2023-07-08T21:26:54;5.78;;;0.90;;
54917;SDS011;40818;50.562;7.454;2023-07-08T21:37:01;4.30;;;0.93;;
54917;SDS011;40818;50.562;7.454;2023-07-08T21:47:05;5.32;;;1.10;;
54917;SDS011;40818;50.562;7.454;2023-07-08T21:57:12;7.32;;;1.10;;
54917;SDS011;40818;50.562;7.454;2023-07-08T22:07:16;5.82;;;1.10;;
54917;SDS011;40818;50.562;7.454;2023-07-08T22:17:24;6.20;;;1.00;;
54917;SDS011;40818;50.562;7.454;2023-07-08T22:27:27;4.95;;;0.85;;
54917;SDS011;40818;50.562;7.454;2023-07-08T22:37:33;4.72;;;1.00;;
54917;SDS011;40818;50.562;7.454;2023-07-08T22:47:37;7.45;;;1.00;;
54917;SDS011;40818;50.562;7.454;2023-07-08T22:57:43;3.60;;;0.88;;
54917;SDS011;40818;50.562;7.454;2023-07-08T23:07:47;8.98;;;0.90;;
54917;SDS011;40818;50.562;7.454;2023-07-08T23:17:53;5.05;;;0.70;;
54917;SDS011;40818;50.562;7.454;2023-07-08T23:27:57;7.70;;;1.00;;
54917;SDS011;40818;50.562;7.454;2023-07-08T23:38:03;2.67;;;0.70;;
54917;SDS011;40818;50.562;7.454;2023-07-08T23:48:09;2.95;;;0.70;;
54917;SDS011;40818;50.562;7.454;2023-07-08T23:58:19;10.63;;;0.80;;
